Time;durP1;ratioP1;P1;durP2;ratioP2;P2;SDS_P1;SDS_P2;PMS_P1;PMS_P2;Temp;Humidity;BMP_temperature;BMP_pressure;BME280_temperature;BME280_humidity;BME280_pressure;Samples;Min_cycle;Max_cycle;Signal;HPM_P1;HPM_P2
2022/12/17 13:08:22;;;;;;;1.23;1.02;;;;;;;;;;5022756;28;20041;-82
2022/12/17 13:10:49;;;;;;;1.23;0.80;;;;;;;;;;5024476;28;20112;-83
2022/12/17 13:13:14;;;;;;;2.95;1.60;;;;;;;;;;5027337;28;20139;-85
2022/12/17 13:15:44;;;;;;;5.35;3.63;;;;;;;;;;5024253;28;20048;-82
2022/12/17 13:18:32;;;;;;;7.10;4.50;;;;;;;;;;5013375;28;20033;-83
2022/12/17 13:21:23;;;;;;;2.95;2.35;;;;;;;;;;5016441;28;20040;-84
2022/12/17 13:23:48;;;;;;;2.63;1.88;;;;;;;;;;5023091;28;20053;-82
2022/12/17 13:26:49;;;;;;;3.70;2.53;;;;;;;;;;5023398;28;20065;-82
2022/12/17 13:29:34;;;;;;;3.53;2.72;;;;;;;;;;5014985;28;20091;-81
2022/12/17 13:32:00;;;;;;;3.38;2.40;;;;;;;;;;5023638;28;20049;-82
2022/12/17 13:34:43;;;;;;;6.82;2.88;;;;;;;;;;5019489;28;20477;-82
2022/12/17 13:37:41;;;;;;;5.82;1.90;;;;;;;;;;5013829;28;20034;-85
2022/12/17 13:40:16;;;;;;;3.47;2.47;;;;;;;;;;5015182;28;20025;-84
2022/12/17 13:42:44;;;;;;;3.30;2.10;;;;;;;;;;5014631;28;20033;-85
2022/12/17 13:45:20;;;;;;;6.95;4.00;;;;;;;;;;5016097;28;20037;-84
2022/12/17 13:47:54;;;;;;;7.60;3.65;;;;;;;;;;5016108;28;20532;-83
2022/12/17 13:50:27;;;;;;;3.33;2.53;;;;;;;;;;5013974;28;20478;-85
2022/12/17 13:52:52;;;;;;;3.63;2.42;;;;;;;;;;5015710;28;20025;-82
2022/12/17 13:55:24;;;;;;;3.65;2.70;;;;;;;;;;5012185;28;20041;-83
2022/12/17 13:57:51;;;;;;;2.10;1.63;;;;;;;;;;5014105;28;20072;-84
2022/12/17 14:00:35;;;;;;;3.08;1.38;;;;;;;;;;5019404;28;20045;-86
2022/12/17 14:03:10;;;;;;;2.65;2.33;;;;;;;;;;5018500;28;20037;-83
2022/12/17 14:05:41;;;;;;;6.25;3.80;;;;;;;;;;5017094;28;20095;-84
2022/12/17 14:08:07;;;;;;;3.22;2.15;;;;;;;;;;5013529;28;20025;-83
2022/12/17 14:10:32;;;;;;;8.40;2.47;;;;;;;;;;5016223;28;20080;-86
2022/12/17 14:13:11;;;;;;;2.25;1.95;;;;;;;;;;5020312;28;20021;-83
2022/12/17 14:15:37;;;;;;;3.33;2.17;;;;;;;;;;5018671;28;20120;-82
2022/12/17 14:18:03;;;;;;;2.60;1.58;;;;;;;;;;5016503;28;20167;-83
2022/12/17 14:20:34;;;;;;;3.65;1.48;;;;;;;;;;5018823;28;20497;-83
2022/12/17 14:23:28;;;;;;;3.92;1.73;;;;;;;;;;5017373;28;20569;-81
2022/12/17 14:25:55;;;;;;;2.88;1.38;;;;;;;;;;5024927;28;20030;-81
2022/12/17 14:28:28;;;;;;;1.67;1.40;;;;;;;;;;5021200;28;20451;-82
2022/12/17 14:31:12;;;;;;;1.60;1.40;;;;;;;;;;5015646;28;20079;-82
2022/12/17 14:33:39;;;;;;;2.78;2.03;;;;;;;;;;5012848;28;20025;-82
2022/12/17 14:36:22;;;;;;;3.58;1.45;;;;;;;;;;5019790;28;20362;-81
2022/12/17 14:38:57;;;;;;;2.95;1.58;;;;;;;;;;5017925;28;20029;-81
2022/12/17 14:44:18;;;;;;;3.45;1.50;;;;;;;;;;5016822;28;20045;-80
2022/12/17 14:46:43;;;;;;;1.80;1.25;;;;;;;;;;5014667;28;20065;-81
2022/12/17 14:49:20;;;;;;;2.42;1.30;;;;;;;;;;5015086;28;20476;-83
2022/12/17 14:51:47;;;;;;;3.25;2.03;;;;;;;;;;5018543;28;20049;-82
2022/12/17 14:54:12;;;;;;;9.68;4.28;;;;;;;;;;5015969;28;20588;-82
2022/12/17 14:56:39;;;;;;;6.65;3.03;;;;;;;;;;5016351;28;20109;-81
2022/12/17 14:59:04;;;;;;;4.07;2.85;;;;;;;;;;5017853;28;20075;-82
2022/12/17 15:01:30;;;;;;;3.08;1.77;;;;;;;;;;5022805;28;20429;-80
2022/12/17 15:03:55;;;;;;;2.35;1.40;;;;;;;;;;5016069;28;20036;-81
2022/12/17 15:06:21;;;;;;;1.33;1.13;;;;;;;;;;5019007;28;20120;-80
2022/12/17 15:08:49;;;;;;;3.60;1.38;;;;;;;;;;5020232;28;20457;-80
2022/12/17 15:11:17;;;;;;;3.85;2.10;;;;;;;;;;5017408;28;20033;-81
2022/12/17 15:13:42;;;;;;;2.65;1.75;;;;;;;;;;5014455;28;20437;-81
2022/12/17 15:16:09;;;;;;;2.80;1.77;;;;;;;;;;5022057;28;20029;-83
2022/12/17 15:18:35;;;;;;;5.45;2.97;;;;;;;;;;5010867;28;20025;-81
2022/12/17 15:21:01;;;;;;;3.10;2.05;;;;;;;;;;5017999;28;20033;-79
2022/12/17 15:23:26;;;;;;;1.67;1.35;;;;;;;;;;5009526;28;20510;-81
2022/12/17 15:25:53;;;;;;;1.27;1.00;;;;;;;;;;5015734;28;20129;-82
2022/12/17 15:28:19;;;;;;;1.63;1.23;;;;;;;;;;5018475;28;20030;-80
2022/12/17 15:30:46;;;;;;;1.33;1.10;;;;;;;;;;5019695;28;20025;-82
2022/12/17 15:33:12;;;;;;;2.05;1.50;;;;;;;;;;5015545;28;20044;-80
2022/12/17 15:35:37;;;;;;;3.30;1.33;;;;;;;;;;5019752;28;20021;-79
2022/12/17 15:38:03;;;;;;;0.85;0.80;;;;;;;;;;5017030;28;20033;-82
2022/12/17 15:40:29;;;;;;;8.10;0.88;;;;;;;;;;5024056;28;20033;-78
2022/12/17 15:43:10;;;;;;;2.42;1.55;;;;;;;;;;5013172;28;20036;-80
2022/12/17 15:45:42;;;;;;;1.08;0.95;;;;;;;;;;5010514;28;20465;-80
2022/12/17 15:48:08;;;;;;;1.73;0.95;;;;;;;;;;5011509;28;20052;-81
2022/12/17 15:50:34;;;;;;;1.40;1.30;;;;;;;;;;5017219;28;20044;-79
2022/12/17 15:52:59;;;;;;;1.17;0.90;;;;;;;;;;5010986;28;20030;-80
2022/12/17 15:55:25;;;;;;;1.33;1.10;;;;;;;;;;5010357;28;20033;-79
2022/12/17 15:57:50;;;;;;;5.10;2.10;;;;;;;;;;5014567;28;20068;-82
2022/12/17 16:00:16;;;;;;;3.67;2.70;;;;;;;;;;5012534;28;20065;-79
2022/12/17 16:02:42;;;;;;;2.80;1.70;;;;;;;;;;5017507;28;20095;-80
2022/12/17 16:05:08;;;;;;;2.30;1.58;;;;;;;;;;5016653;28;20042;-82
2022/12/17 16:07:33;;;;;;;2.08;1.48;;;;;;;;;;5017181;28;20487;-78
2022/12/17 16:09:59;;;;;;;2.47;1.15;;;;;;;;;;5010828;28;20050;-83
2022/12/17 16:12:24;;;;;;;3.45;1.55;;;;;;;;;;5017389;28;20026;-83
2022/12/17 16:14:50;;;;;;;1.48;1.10;;;;;;;;;;5015745;28;20034;-80
2022/12/17 16:17:15;;;;;;;0.75;0.65;;;;;;;;;;5014269;28;20048;-80
2022/12/17 16:19:41;;;;;;;1.20;1.00;;;;;;;;;;5012719;28;20033;-78
2022/12/17 16:22:06;;;;;;;1.88;1.35;;;;;;;;;;5022366;28;20404;-78
2022/12/17 16:24:32;;;;;;;1.38;1.10;;;;;;;;;;5014766;28;20034;-79
2022/12/17 16:26:57;;;;;;;1.05;0.93;;;;;;;;;;5019211;28;20030;-80
2022/12/17 16:29:23;;;;;;;0.63;0.60;;;;;;;;;;5014036;28;20026;-79
2022/12/17 16:31:48;;;;;;;2.83;1.55;;;;;;;;;;5017341;28;20129;-80
2022/12/17 16:34:14;;;;;;;5.70;1.92;;;;;;;;;;5025074;28;20021;-79
2022/12/17 16:36:40;;;;;;;2.47;1.38;;;;;;;;;;5012380;28;20093;-79
2022/12/17 16:39:05;;;;;;;1.20;0.82;;;;;;;;;;5011915;28;20022;-80
2022/12/17 16:41:31;;;;;;;1.95;0.70;;;;;;;;;;5016199;28;20026;-81
2022/12/17 16:43:56;;;;;;;1.23;1.00;;;;;;;;;;5010931;28;20022;-81
2022/12/17 16:46:28;;;;;;;1.30;1.02;;;;;;;;;;5016910;28;20536;-80
2022/12/17 16:48:55;;;;;;;3.30;1.15;;;;;;;;;;5016023;28;20034;-80
2022/12/17 16:51:22;;;;;;;1.65;1.08;;;;;;;;;;5007688;28;20049;-80
2022/12/17 16:53:48;;;;;;;0.82;0.50;;;;;;;;;;5010034;28;20041;-80
2022/12/17 16:56:22;;;;;;;0.68;0.68;;;;;;;;;;5011761;28;20099;-78
2022/12/17 16:58:48;;;;;;;1.17;1.05;;;;;;;;;;5009586;28;20029;-79
2022/12/17 17:01:22;;;;;;;2.22;1.38;;;;;;;;;;5011004;28;20042;-80
2022/12/17 17:03:48;;;;;;;1.50;0.90;;;;;;;;;;5018147;28;20493;-80
2022/12/17 17:06:15;;;;;;;1.27;0.90;;;;;;;;;;5013763;28;20032;-78
2022/12/17 17:08:41;;;;;;;1.50;1.17;;;;;;;;;;5008575;28;20425;-80
2022/12/17 17:11:14;;;;;;;1.67;1.17;;;;;;;;;;5012247;28;20025;-80
2022/12/17 17:13:40;;;;;;;0.60;0.60;;;;;;;;;;5015461;28;20030;-80
2022/12/17 17:16:07;;;;;;;3.72;1.65;;;;;;;;;;5013263;28;20040;-79
2022/12/17 17:18:33;;;;;;;4.70;0.95;;;;;;;;;;5016578;28;20087;-81
2022/12/17 17:21:28;;;;;;;1.70;1.05;;;;;;;;;;5016113;28;20036;-80
2022/12/17 17:24:00;;;;;;;2.15;1.33;;;;;;;;;;5016231;28;20029;-80
2022/12/17 17:26:27;;;;;;;1.63;1.00;;;;;;;;;;5015482;28;20120;-80
2022/12/17 17:28:53;;;;;;;1.48;0.80;;;;;;;;;;5010315;28;20030;-80
2022/12/17 17:31:18;;;;;;;4.30;0.73;;;;;;;;;;5010891;28;20640;-79
2022/12/17 17:33:47;;;;;;;1.27;0.90;;;;;;;;;;5015408;28;20055;-79
2022/12/17 17:36:17;;;;;;;1.48;1.02;;;;;;;;;;5018988;28;20135;-80
2022/12/17 17:38:42;;;;;;;2.25;1.08;;;;;;;;;;5017896;28;20029;-79
2022/12/17 17:41:12;;;;;;;1.88;1.10;;;;;;;;;;5016604;28;20080;-80
2022/12/17 17:43:37;;;;;;;1.45;1.13;;;;;;;;;;5012131;28;20061;-80
2022/12/17 17:46:15;;;;;;;0.85;0.80;;;;;;;;;;5014464;28;20510;-80
2022/12/17 17:48:41;;;;;;;2.38;1.15;;;;;;;;;;5025747;28;20025;-79
2022/12/17 17:51:16;;;;;;;0.93;0.90;;;;;;;;;;5011507;28;20026;-78
2022/12/17 17:53:43;;;;;;;1.40;1.00;;;;;;;;;;5018897;28;20038;-80
2022/12/17 17:56:14;;;;;;;0.98;0.88;;;;;;;;;;5010637;28;20443;-81
2022/12/17 17:59:10;;;;;;;1.23;1.13;;;;;;;;;;5023382;28;20018;-78
2022/12/17 18:01:39;;;;;;;1.30;1.20;;;;;;;;;;5013793;28;20041;-80
2022/12/17 18:04:06;;;;;;;6.45;1.02;;;;;;;;;;5016736;28;20793;-81
2022/12/17 18:06:32;;;;;;;2.47;1.20;;;;;;;;;;5016196;28;20041;-81
2022/12/17 18:08:58;;;;;;;0.80;0.73;;;;;;;;;;5021224;28;20030;-81
2022/12/17 18:11:27;;;;;;;3.67;2.15;;;;;;;;;;5013548;28;20113;-81
2022/12/17 18:13:54;;;;;;;1.83;1.13;;;;;;;;;;5021188;28;20485;-80
2022/12/17 18:16:21;;;;;;;4.47;1.60;;;;;;;;;;5021426;28;20033;-80
2022/12/17 18:18:46;;;;;;;2.42;1.60;;;;;;;;;;5012060;28;20112;-79
2022/12/17 18:21:16;;;;;;;3.70;3.35;;;;;;;;;;5022254;28;20108;-81
2022/12/17 18:23:42;;;;;;;1.38;1.02;;;;;;;;;;5017020;28;20036;-80
2022/12/17 18:26:13;;;;;;;2.60;1.52;;;;;;;;;;5016410;28;20041;-81
2022/12/17 18:28:41;;;;;;;0.93;0.85;;;;;;;;;;5015225;28;20037;-80
2022/12/17 18:31:12;;;;;;;7.55;1.02;;;;;;;;;;5015036;28;20030;-80
2022/12/17 18:33:41;;;;;;;1.15;0.93;;;;;;;;;;5016109;28;20055;-80
2022/12/17 18:36:15;;;;;;;1.92;1.10;;;;;;;;;;5020129;28;20017;-80
2022/12/17 18:38:41;;;;;;;9.70;5.22;;;;;;;;;;5010893;28;20048;-81
2022/12/17 18:44:03;;;;;;;7.03;4.75;;;;;;;;;;5012564;28;20043;-82
2022/12/17 18:46:28;;;;;;;8.45;4.75;;;;;;;;;;5011598;28;20030;-80
2022/12/17 18:48:59;;;;;;;10.65;7.20;;;;;;;;;;5015078;28;20079;-80
2022/12/17 18:51:25;;;;;;;12.45;6.40;;;;;;;;;;5014516;28;20635;-82
2022/12/17 18:53:51;;;;;;;11.30;8.23;;;;;;;;;;5015927;28;20033;-81
2022/12/17 18:56:17;;;;;;;9.77;7.07;;;;;;;;;;5011966;28;20030;-81
2022/12/17 18:58:43;;;;;;;8.32;5.75;;;;;;;;;;5014728;28;20097;-82
2022/12/17 19:01:18;;;;;;;8.23;5.10;;;;;;;;;;5011550;28;20509;-81
2022/12/17 19:03:43;;;;;;;7.03;4.85;;;;;;;;;;5019437;28;20076;-82
2022/12/17 19:06:09;;;;;;;6.55;4.20;;;;;;;;;;5015342;28;20124;-81
2022/12/17 19:08:35;;;;;;;5.22;4.45;;;;;;;;;;5015754;28;20494;-81
2022/12/17 19:11:08;;;;;;;5.53;3.25;;;;;;;;;;5019432;28;20041;-82
2022/12/17 19:13:34;;;;;;;5.95;4.20;;;;;;;;;;5016427;28;20037;-81
2022/12/17 19:16:12;;;;;;;7.70;4.65;;;;;;;;;;5018279;28;20058;-81
2022/12/17 19:18:38;;;;;;;5.57;3.90;;;;;;;;;;5015135;28;20044;-80
2022/12/17 19:21:06;;;;;;;5.63;3.30;;;;;;;;;;5013446;28;20034;-79
2022/12/17 19:23:31;;;;;;;4.20;2.17;;;;;;;;;;5016578;28;20049;-81
2022/12/17 19:26:07;;;;;;;6.25;2.95;;;;;;;;;;5014705;28;20038;-80
2022/12/17 19:28:33;;;;;;;4.50;3.20;;;;;;;;;;5019932;28;20156;-80
2022/12/17 19:30:59;;;;;;;7.95;4.90;;;;;;;;;;5020932;28;20449;-80
2022/12/17 19:33:24;;;;;;;5.50;4.25;;;;;;;;;;5022083;28;20026;-79
2022/12/17 19:35:50;;;;;;;8.93;5.63;;;;;;;;;;5024639;28;20477;-80
2022/12/17 19:38:15;;;;;;;7.32;4.07;;;;;;;;;;5021230;28;20060;-81
2022/12/17 19:40:40;;;;;;;4.32;3.25;;;;;;;;;;5022136;28;20033;-80
2022/12/17 19:43:06;;;;;;;5.80;3.08;;;;;;;;;;5019659;28;20021;-83
2022/12/17 19:45:31;;;;;;;5.97;2.92;;;;;;;;;;5022356;28;20029;-81
2022/12/17 19:47:57;;;;;;;30.08;15.50;;;;;;;;;;5027509;28;20033;-81
2022/12/17 19:50:22;;;;;;;9.55;4.65;;;;;;;;;;5024761;28;20429;-79
2022/12/17 19:52:48;;;;;;;3.92;2.83;;;;;;;;;;5027892;28;20028;-79
2022/12/17 19:55:13;;;;;;;8.05;4.88;;;;;;;;;;5025746;28;20033;-80
2022/12/17 19:57:38;;;;;;;4.68;3.03;;;;;;;;;;5023256;28;20022;-81
2022/12/17 20:00:04;;;;;;;6.55;4.78;;;;;;;;;;5016473;28;20081;-83
2022/12/17 20:02:30;;;;;;;8.45;2.80;;;;;;;;;;5017856;28;20116;-83
2022/12/17 20:04:55;;;;;;;9.35;5.90;;;;;;;;;;5021727;28;20155;-79
2022/12/17 20:07:21;;;;;;;10.30;7.40;;;;;;;;;;5019715;28;20143;-80
2022/12/17 20:09:46;;;;;;;8.38;6.70;;;;;;;;;;5019474;28;20036;-80
2022/12/17 20:12:12;;;;;;;9.82;5.90;;;;;;;;;;5022015;28;20041;-82
2022/12/17 20:14:37;;;;;;;10.80;6.60;;;;;;;;;;5020943;28;20477;-84
2022/12/17 20:17:06;;;;;;;5.65;4.28;;;;;;;;;;5015025;28;20405;-81
2022/12/17 20:19:33;;;;;;;5.10;2.85;;;;;;;;;;5015808;28;20076;-82
2022/12/17 20:22:01;;;;;;;7.47;6.15;;;;;;;;;;5018018;28;20544;-80
2022/12/17 20:24:27;;;;;;;6.80;4.70;;;;;;;;;;5017132;28;20120;-80
2022/12/17 20:26:53;;;;;;;6.93;3.80;;;;;;;;;;5019263;28;20082;-79
2022/12/17 20:29:21;;;;;;;7.47;4.53;;;;;;;;;;5016136;28;20061;-80
2022/12/17 20:31:46;;;;;;;7.18;5.03;;;;;;;;;;5019981;28;20037;-83
2022/12/17 20:34:14;;;;;;;9.70;4.75;;;;;;;;;;5017192;28;20038;-79
2022/12/17 20:36:39;;;;;;;6.07;4.03;;;;;;;;;;5023734;28;20472;-80
2022/12/17 20:39:05;;;;;;;6.75;3.70;;;;;;;;;;5022916;28;20104;-80
2022/12/17 20:41:31;;;;;;;10.50;3.88;;;;;;;;;;5019714;28;20030;-80
2022/12/17 20:44:02;;;;;;;5.93;4.25;;;;;;;;;;5018373;28;20026;-81
2022/12/17 20:46:27;;;;;;;6.20;3.95;;;;;;;;;;5021457;28;20030;-81
2022/12/17 20:48:53;;;;;;;4.30;3.22;;;;;;;;;;5022073;28;20033;-81
2022/12/17 20:51:24;;;;;;;5.40;3.55;;;;;;;;;;5022176;28;20033;-81
2022/12/17 20:53:51;;;;;;;7.43;4.78;;;;;;;;;;5026280;28;20529;-82
2022/12/17 20:56:19;;;;;;;6.13;3.78;;;;;;;;;;5026124;28;20029;-82
2022/12/17 20:58:45;;;;;;;5.57;3.70;;;;;;;;;;5023473;28;20470;-82
2022/12/17 21:01:13;;;;;;;5.93;3.28;;;;;;;;;;5024887;28;20107;-80
2022/12/17 21:03:40;;;;;;;5.22;3.22;;;;;;;;;;5020354;28;20355;-83
2022/12/17 21:06:12;;;;;;;4.32;3.05;;;;;;;;;;5013989;28;20688;-82
2022/12/17 21:08:39;;;;;;;4.63;3.22;;;;;;;;;;5024807;28;20083;-83
2022/12/17 21:11:06;;;;;;;5.05;3.45;;;;;;;;;;5025522;28;20021;-82
2022/12/17 21:13:32;;;;;;;3.60;2.22;;;;;;;;;;5018724;28;20474;-82
2022/12/17 21:16:00;;;;;;;5.32;2.90;;;;;;;;;;5025426;28;20030;-81
2022/12/17 21:18:28;;;;;;;3.15;2.38;;;;;;;;;;5022886;28;20387;-81
2022/12/17 21:21:09;;;;;;;4.47;2.58;;;;;;;;;;5024950;28;20049;-81
2022/12/17 21:23:36;;;;;;;4.03;2.80;;;;;;;;;;5022907;28;20060;-81
2022/12/17 21:26:12;;;;;;;4.20;3.33;;;;;;;;;;5026361;28;20021;-82
2022/12/17 21:28:40;;;;;;;3.65;2.60;;;;;;;;;;5021251;28;20018;-80
2022/12/17 21:31:05;;;;;;;5.45;3.15;;;;;;;;;;5021458;28;20034;-81
2022/12/17 21:33:30;;;;;;;2.97;1.98;;;;;;;;;;5019748;28;20045;-81
2022/12/17 21:35:59;;;;;;;4.57;2.85;;;;;;;;;;5021141;28;20029;-82
2022/12/17 21:38:24;;;;;;;3.55;2.17;;;;;;;;;;5019475;28;20532;-81
2022/12/17 21:40:50;;;;;;;5.70;1.95;;;;;;;;;;5020025;28;20057;-82
2022/12/17 21:43:15;;;;;;;2.33;1.90;;;;;;;;;;5029740;28;20025;-82
2022/12/17 21:45:41;;;;;;;4.75;2.50;;;;;;;;;;5021268;28;20516;-82
2022/12/17 21:48:09;;;;;;;4.90;2.65;;;;;;;;;;5023324;28;20028;-81
2022/12/17 21:50:42;;;;;;;4.47;2.58;;;;;;;;;;5017215;28;20107;-83
2022/12/17 21:53:09;;;;;;;4.43;3.38;;;;;;;;;;5026020;28;20084;-82
2022/12/17 21:55:34;;;;;;;4.65;2.88;;;;;;;;;;5020094;28;20044;-82
2022/12/17 21:58:00;;;;;;;4.53;3.13;;;;;;;;;;5016732;28;20018;-82
2022/12/17 22:00:25;;;;;;;4.65;3.08;;;;;;;;;;5019164;28;20041;-82
2022/12/17 22:02:51;;;;;;;5.13;2.63;;;;;;;;;;5017416;28;20435;-82
2022/12/17 22:05:16;;;;;;;4.68;2.58;;;;;;;;;;5021173;28;20084;-82
2022/12/17 22:07:42;;;;;;;5.78;3.72;;;;;;;;;;5019237;28;20037;-82
2022/12/17 22:10:07;;;;;;;4.22;2.70;;;;;;;;;;5016712;28;20029;-80
2022/12/17 22:15:17;;;;;;;5.43;3.17;;;;;;;;;;5023264;28;20037;-81
2022/12/17 22:17:42;;;;;;;4.20;2.88;;;;;;;;;;5026769;28;20033;-81
2022/12/17 22:20:08;;;;;;;3.25;2.42;;;;;;;;;;5025584;28;20029;-82
2022/12/17 22:22:34;;;;;;;3.30;2.05;;;;;;;;;;5019780;28;20386;-81
2022/12/17 22:24:59;;;;;;;3.17;2.33;;;;;;;;;;5017351;28;20029;-80
2022/12/17 22:27:25;;;;;;;2.92;2.00;;;;;;;;;;5017366;28;20021;-81
2022/12/17 22:35:19;;;;;;;5.78;2.30;;;;;;;;;;5019347;28;20040;-80
2022/12/17 22:37:44;;;;;;;3.08;2.65;;;;;;;;;;5019034;28;20022;-81
2022/12/17 22:40:10;;;;;;;5.28;2.95;;;;;;;;;;5021822;28;20082;-80
2022/12/17 22:45:20;;;;;;;4.40;2.53;;;;;;;;;;5023299;28;20036;-81
2022/12/17 22:47:45;;;;;;;6.43;3.53;;;;;;;;;;5021230;28;20034;-82
2022/12/17 22:50:10;;;;;;;4.35;2.22;;;;;;;;;;5016596;28;20034;-82
2022/12/17 22:52:36;;;;;;;4.75;3.03;;;;;;;;;;5021472;28;20034;-81
2022/12/17 22:55:03;;;;;;;2.75;1.92;;;;;;;;;;5022302;28;20033;-82
2022/12/17 22:57:28;;;;;;;3.88;2.30;;;;;;;;;;5023861;28;20106;-82
2022/12/17 22:59:53;;;;;;;3.58;1.92;;;;;;;;;;5026792;28;20432;-81
2022/12/17 23:02:19;;;;;;;4.00;2.15;;;;;;;;;;5017626;28;20049;-82
2022/12/17 23:04:44;;;;;;;2.92;1.77;;;;;;;;;;5029960;28;20029;-81
2022/12/17 23:07:10;;;;;;;2.38;1.67;;;;;;;;;;5021795;28;20025;-81
2022/12/17 23:09:35;;;;;;;1.40;1.02;;;;;;;;;;5032420;28;20029;-82
2022/12/17 23:12:49;;;;;;;4.63;1.33;;;;;;;;;;5024614;28;20021;-81
2022/12/17 23:14:46;;;;;;;4.45;2.33;;;;;;;;;;5019943;28;20388;-82
2022/12/17 23:17:11;;;;;;;3.17;2.45;;;;;;;;;;5028418;28;20037;-80
2022/12/17 23:19:36;;;;;;;2.03;1.63;;;;;;;;;;5022869;28;20034;-82
2022/12/17 23:22:02;;;;;;;2.10;1.50;;;;;;;;;;5026734;28;20033;-80
2022/12/17 23:24:27;;;;;;;4.57;2.17;;;;;;;;;;5022982;28;20026;-81
2022/12/17 23:26:53;;;;;;;2.28;1.40;;;;;;;;;;5023611;28;20033;-82
2022/12/17 23:29:18;;;;;;;2.30;1.60;;;;;;;;;;5032594;28;20029;-81
2022/12/17 23:31:43;;;;;;;3.20;1.92;;;;;;;;;;5020191;28;20025;-81
2022/12/17 23:34:09;;;;;;;4.00;2.35;;;;;;;;;;5029667;28;20495;-82
2022/12/17 23:36:35;;;;;;;2.85;1.55;;;;;;;;;;5025093;28;20021;-82
2022/12/17 23:39:00;;;;;;;3.03;2.10;;;;;;;;;;5027172;28;20057;-83
2022/12/17 23:41:28;;;;;;;2.88;1.35;;;;;;;;;;5024423;28;20030;-80
2022/12/17 23:43:54;;;;;;;1.85;1.45;;;;;;;;;;5025338;28;20389;-82
2022/12/17 23:46:21;;;;;;;2.08;1.50;;;;;;;;;;5021704;28;20116;-82
2022/12/17 23:48:46;;;;;;;1.92;1.45;;;;;;;;;;5029016;28;20030;-83
2022/12/17 23:51:18;;;;;;;2.45;1.95;;;;;;;;;;5023174;28;20137;-82
2022/12/17 23:53:43;;;;;;;3.00;1.63;;;;;;;;;;5023341;28;20048;-82
2022/12/17 23:56:15;;;;;;;3.65;2.20;;;;;;;;;;5025352;28;20056;-81
2022/12/17 23:58:41;;;;;;;2.75;1.45;;;;;;;;;;5030004;28;20373;-82
